sensor_id;sensor_type;location;lat;lon;timestamp;temperature;humidity
2465;DHT22;1244;54.326;10.074;2023-11-18T00:02:11;4.10;99.90
2465;DHT22;1244;54.326;10.074;2023-11-18T00:04:37;4.10;99.90
2465;DHT22;1244;54.326;10.074;2023-11-18T00:07:02;4.10;99.90
2465;DHT22;1244;54.326;10.074;2023-11-18T00:09:29;4.20;99.90
2465;DHT22;1244;54.326;10.074;2023-11-18T00:11:54;4.20;99.90
2465;DHT22;1244;54.326;10.074;2023-11-18T00:14:20;4.10;99.90
2465;DHT22;1244;54.326;10.074;2023-11-18T00:16:46;4.20;99.90
2465;DHT22;1244;54.326;10.074;2023-11-18T00:19:11;4.10;99.90
2465;DHT22;1244;54.326;10.074;2023-11-18T00:21:37;4.20;99.90
2465;DHT22;1244;54.326;10.074;2023-11-18T00:24:02;4.20;99.90
2465;DHT22;1244;54.326;10.074;2023-11-18T00:26:28;4.20;99.90
2465;DHT22;1244;54.326;10.074;2023-11-18T00:28:54;4.20;99.90
2465;DHT22;1244;54.326;10.074;2023-11-18T00:31:20;4.20;99.90
2465;DHT22;1244;54.326;10.074;2023-11-18T00:33:45;4.20;99.90
2465;DHT22;1244;54.326;10.074;2023-11-18T00:36:10;4.30;99.90
2465;DHT22;1244;54.326;10.074;2023-11-18T00:38:36;4.30;99.90
2465;DHT22;1244;54.326;10.074;2023-11-18T00:41:01;4.30;99.90
2465;DHT22;1244;54.326;10.074;2023-11-18T00:43:27;4.30;99.90
2465;DHT22;1244;54.326;10.074;2023-11-18T00:45:52;4.30;99.90
2465;DHT22;1244;54.326;10.074;2023-11-18T00:48:18;4.20;99.90
2465;DHT22;1244;54.326;10.074;2023-11-18T00:50:43;4.20;99.90
2465;DHT22;1244;54.326;10.074;2023-11-18T00:53:08;4.10;99.90
2465;DHT22;1244;54.326;10.074;2023-11-18T00:55:35;4.10;99.90
2465;DHT22;1244;54.326;10.074;2023-11-18T00:58:00;4.00;99.90
2465;DHT22;1244;54.326;10.074;2023-11-18T01:00:26;3.80;99.90
2465;DHT22;1244;54.326;10.074;2023-11-18T01:02:52;3.70;99.90
2465;DHT22;1244;54.326;10.074;2023-11-18T01:05:18;3.60;99.90
2465;DHT22;1244;54.326;10.074;2023-11-18T01:07:44;3.50;99.90
2465;DHT22;1244;54.326;10.074;2023-11-18T01:10:10;3.20;99.90
2465;DHT22;1244;54.326;10.074;2023-11-18T01:12:36;3.20;99.90
2465;DHT22;1244;54.326;10.074;2023-11-18T01:15:01;3.20;99.90
2465;DHT22;1244;54.326;10.074;2023-11-18T01:17:28;3.20;99.90
2465;DHT22;1244;54.326;10.074;2023-11-18T01:19:54;3.20;99.90
2465;DHT22;1244;54.326;10.074;2023-11-18T01:22:20;3.10;99.90
2465;DHT22;1244;54.326;10.074;2023-11-18T01:24:46;3.10;99.90
2465;DHT22;1244;54.326;10.074;2023-11-18T01:27:12;2.80;99.90
2465;DHT22;1244;54.326;10.074;2023-11-18T01:29:37;2.70;99.90
2465;DHT22;1244;54.326;10.074;2023-11-18T01:32:04;2.60;99.90
2465;DHT22;1244;54.326;10.074;2023-11-18T01:34:37;2.60;99.90
2465;DHT22;1244;54.326;10.074;2023-11-18T01:37:04;2.70;99.90
2465;DHT22;1244;54.326;10.074;2023-11-18T01:39:35;2.70;99.90
2465;DHT22;1244;54.326;10.074;2023-11-18T01:42:01;2.80;99.90
2465;DHT22;1244;54.326;10.074;2023-11-18T01:44:28;2.90;99.90
2465;DHT22;1244;54.326;10.074;2023-11-18T01:46:57;2.80;99.90
2465;DHT22;1244;54.326;10.074;2023-11-18T01:49:22;2.80;99.90
2465;DHT22;1244;54.326;10.074;2023-11-18T01:51:49;2.70;99.90
2465;DHT22;1244;54.326;10.074;2023-11-18T01:54:16;2.50;99.90
2465;DHT22;1244;54.326;10.074;2023-11-18T01:56:44;2.30;99.90
2465;DHT22;1244;54.326;10.074;2023-11-18T01:59:11;2.30;99.90
2465;DHT22;1244;54.326;10.074;2023-11-18T02:01:45;2.30;99.90
2465;DHT22;1244;54.326;10.074;2023-11-18T02:04:11;2.30;99.90
2465;DHT22;1244;54.326;10.074;2023-11-18T02:06:38;2.20;99.90
2465;DHT22;1244;54.326;10.074;2023-11-18T02:09:03;2.20;99.90
2465;DHT22;1244;54.326;10.074;2023-11-18T02:11:36;2.40;99.90
2465;DHT22;1244;54.326;10.074;2023-11-18T02:14:06;2.20;99.90
2465;DHT22;1244;54.326;10.074;2023-11-18T02:16:36;2.20;99.90
2465;DHT22;1244;54.326;10.074;2023-11-18T02:19:03;2.20;99.90
2465;DHT22;1244;54.326;10.074;2023-11-18T02:21:34;2.10;99.90
2465;DHT22;1244;54.326;10.074;2023-11-18T02:24:01;2.20;99.90
2465;DHT22;1244;54.326;10.074;2023-11-18T02:26:26;2.20;99.90
2465;DHT22;1244;54.326;10.074;2023-11-18T02:28:52;2.40;99.90
2465;DHT22;1244;54.326;10.074;2023-11-18T02:31:27;2.40;99.90
2465;DHT22;1244;54.326;10.074;2023-11-18T02:34:00;2.10;99.90
2465;DHT22;1244;54.326;10.074;2023-11-18T02:36:31;2.10;99.90
2465;DHT22;1244;54.326;10.074;2023-11-18T02:39:06;2.20;99.90
2465;DHT22;1244;54.326;10.074;2023-11-18T02:41:36;2.30;99.90
2465;DHT22;1244;54.326;10.074;2023-11-18T02:44:04;2.40;99.90
2465;DHT22;1244;54.326;10.074;2023-11-18T02:46:34;2.40;99.90
2465;DHT22;1244;54.326;10.074;2023-11-18T02:49:00;2.40;99.90
2465;DHT22;1244;54.326;10.074;2023-11-18T02:51:25;2.40;99.90
2465;DHT22;1244;54.326;10.074;2023-11-18T02:53:51;2.40;99.90
2465;DHT22;1244;54.326;10.074;2023-11-18T02:56:17;2.40;99.90
2465;DHT22;1244;54.326;10.074;2023-11-18T02:58:44;2.40;99.90
2465;DHT22;1244;54.326;10.074;2023-11-18T03:01:09;2.20;99.90
2465;DHT22;1244;54.326;10.074;2023-11-18T03:03:34;2.20;99.90
2465;DHT22;1244;54.326;10.074;2023-11-18T03:06:00;2.20;99.90
2465;DHT22;1244;54.326;10.074;2023-11-18T03:08:25;2.20;99.90
2465;DHT22;1244;54.326;10.074;2023-11-18T03:10:54;2.20;99.90
2465;DHT22;1244;54.326;10.074;2023-11-18T03:13:19;2.00;99.90
2465;DHT22;1244;54.326;10.074;2023-11-18T03:15:45;2.10;99.90
2465;DHT22;1244;54.326;10.074;2023-11-18T03:18:12;2.10;99.90
2465;DHT22;1244;54.326;10.074;2023-11-18T03:20:38;2.10;99.90
2465;DHT22;1244;54.326;10.074;2023-11-18T03:23:03;2.20;99.90
2465;DHT22;1244;54.326;10.074;2023-11-18T03:25:30;2.20;99.90
2465;DHT22;1244;54.326;10.074;2023-11-18T03:27:55;2.20;99.90
2465;DHT22;1244;54.326;10.074;2023-11-18T03:30:21;2.10;99.90
2465;DHT22;1244;54.326;10.074;2023-11-18T03:32:46;2.10;99.90
2465;DHT22;1244;54.326;10.074;2023-11-18T03:35:12;2.20;99.90
2465;DHT22;1244;54.326;10.074;2023-11-18T03:37:38;2.20;99.90
2465;DHT22;1244;54.326;10.074;2023-11-18T03:40:09;2.30;99.90
2465;DHT22;1244;54.326;10.074;2023-11-18T03:42:35;2.30;99.90
2465;DHT22;1244;54.326;10.074;2023-11-18T03:45:02;2.30;99.90
2465;DHT22;1244;54.326;10.074;2023-11-18T03:47:28;2.30;99.90
2465;DHT22;1244;54.326;10.074;2023-11-18T03:49:53;2.40;99.90
2465;DHT22;1244;54.326;10.074;2023-11-18T03:52:22;2.40;99.90
2465;DHT22;1244;54.326;10.074;2023-11-18T03:54:47;2.40;99.90
2465;DHT22;1244;54.326;10.074;2023-11-18T03:57:13;2.50;99.90
2465;DHT22;1244;54.326;10.074;2023-11-18T03:59:39;2.40;99.90
2465;DHT22;1244;54.326;10.074;2023-11-18T04:02:04;2.60;99.90
2465;DHT22;1244;54.326;10.074;2023-11-18T04:04:30;2.60;99.90
2465;DHT22;1244;54.326;10.074;2023-11-18T04:06:55;2.60;99.90
2465;DHT22;1244;54.326;10.074;2023-11-18T04:09:21;2.60;99.90
2465;DHT22;1244;54.326;10.074;2023-11-18T04:11:46;2.70;99.90
2465;DHT22;1244;54.326;10.074;2023-11-18T04:14:12;2.70;99.90
2465;DHT22;1244;54.326;10.074;2023-11-18T04:16:38;2.70;99.90
2465;DHT22;1244;54.326;10.074;2023-11-18T04:19:03;2.80;99.90
2465;DHT22;1244;54.326;10.074;2023-11-18T04:21:29;2.80;99.90
2465;DHT22;1244;54.326;10.074;2023-11-18T04:23:55;2.80;99.90
2465;DHT22;1244;54.326;10.074;2023-11-18T04:26:20;2.90;99.90
2465;DHT22;1244;54.326;10.074;2023-11-18T04:28:46;2.90;99.90
2465;DHT22;1244;54.326;10.074;2023-11-18T04:31:11;2.90;99.90
2465;DHT22;1244;54.326;10.074;2023-11-18T04:33:37;2.90;99.90
2465;DHT22;1244;54.326;10.074;2023-11-18T04:36:02;2.90;99.90
2465;DHT22;1244;54.326;10.074;2023-11-18T04:38:30;2.90;99.90
2465;DHT22;1244;54.326;10.074;2023-11-18T04:40:57;3.00;99.90
2465;DHT22;1244;54.326;10.074;2023-11-18T04:43:22;3.00;99.90
2465;DHT22;1244;54.326;10.074;2023-11-18T04:45:48;2.90;99.90
2465;DHT22;1244;54.326;10.074;2023-11-18T04:48:14;2.90;99.90
2465;DHT22;1244;54.326;10.074;2023-11-18T04:50:41;2.90;99.90
2465;DHT22;1244;54.326;10.074;2023-11-18T04:53:06;3.00;99.90
2465;DHT22;1244;54.326;10.074;2023-11-18T04:55:34;3.00;99.90
2465;DHT22;1244;54.326;10.074;2023-11-18T04:58:00;2.90;99.90
2465;DHT22;1244;54.326;10.074;2023-11-18T05:00:25;3.00;99.90
2465;DHT22;1244;54.326;10.074;2023-11-18T05:02:51;3.00;99.90
2465;DHT22;1244;54.326;10.074;2023-11-18T05:05:16;3.00;99.90
2465;DHT22;1244;54.326;10.074;2023-11-18T05:07:42;3.00;99.90
2465;DHT22;1244;54.326;10.074;2023-11-18T05:10:08;3.10;99.90
2465;DHT22;1244;54.326;10.074;2023-11-18T05:12:35;3.00;99.90
2465;DHT22;1244;54.326;10.074;2023-11-18T05:15:00;2.90;99.90
2465;DHT22;1244;54.326;10.074;2023-11-18T05:17:26;2.90;99.90
2465;DHT22;1244;54.326;10.074;2023-11-18T05:19:55;2.90;99.90
2465;DHT22;1244;54.326;10.074;2023-11-18T05:22:20;2.90;99.90
2465;DHT22;1244;54.326;10.074;2023-11-18T05:24:46;2.90;99.90
2465;DHT22;1244;54.326;10.074;2023-11-18T05:27:11;2.90;99.90
2465;DHT22;1244;54.326;10.074;2023-11-18T05:29:37;2.90;99.90
2465;DHT22;1244;54.326;10.074;2023-11-18T05:32:02;2.90;99.90
2465;DHT22;1244;54.326;10.074;2023-11-18T05:34:28;2.90;99.90
2465;DHT22;1244;54.326;10.074;2023-11-18T05:36:54;2.90;99.90
2465;DHT22;1244;54.326;10.074;2023-11-18T05:39:20;2.90;99.90
2465;DHT22;1244;54.326;10.074;2023-11-18T05:41:46;2.90;99.90
2465;DHT22;1244;54.326;10.074;2023-11-18T05:44:15;2.90;99.90
2465;DHT22;1244;54.326;10.074;2023-11-18T05:46:47;2.90;99.90
2465;DHT22;1244;54.326;10.074;2023-11-18T05:49:13;3.00;99.90
2465;DHT22;1244;54.326;10.074;2023-11-18T05:51:39;3.00;99.90
2465;DHT22;1244;54.326;10.074;2023-11-18T05:54:06;3.00;99.90
2465;DHT22;1244;54.326;10.074;2023-11-18T05:56:32;3.00;99.90
2465;DHT22;1244;54.326;10.074;2023-11-18T05:58:57;3.00;99.90
2465;DHT22;1244;54.326;10.074;2023-11-18T06:01:23;2.90;99.90
2465;DHT22;1244;54.326;10.074;2023-11-18T06:03:49;2.90;99.90
2465;DHT22;1244;54.326;10.074;2023-11-18T06:06:15;2.90;99.90
2465;DHT22;1244;54.326;10.074;2023-11-18T06:08:41;2.80;99.90
2465;DHT22;1244;54.326;10.074;2023-11-18T06:11:09;2.80;99.90
2465;DHT22;1244;54.326;10.074;2023-11-18T06:13:40;2.80;99.90
2465;DHT22;1244;54.326;10.074;2023-11-18T06:16:13;2.70;99.90
2465;DHT22;1244;54.326;10.074;2023-11-18T06:18:40;2.80;99.90
2465;DHT22;1244;54.326;10.074;2023-11-18T06:21:06;2.80;99.90
2465;DHT22;1244;54.326;10.074;2023-11-18T06:23:31;2.70;99.90
2465;DHT22;1244;54.326;10.074;2023-11-18T06:25:58;2.70;99.90
2465;DHT22;1244;54.326;10.074;2023-11-18T06:28:25;2.80;99.90
2465;DHT22;1244;54.326;10.074;2023-11-18T06:30:51;2.70;99.90
2465;DHT22;1244;54.326;10.074;2023-11-18T06:33:17;2.70;99.90
2465;DHT22;1244;54.326;10.074;2023-11-18T06:35:42;2.70;99.90
2465;DHT22;1244;54.326;10.074;2023-11-18T06:38:10;2.80;99.90
2465;DHT22;1244;54.326;10.074;2023-11-18T06:40:38;2.80;99.90
2465;DHT22;1244;54.326;10.074;2023-11-18T06:43:03;2.90;99.90
2465;DHT22;1244;54.326;10.074;2023-11-18T06:45:36;2.90;99.90
2465;DHT22;1244;54.326;10.074;2023-11-18T06:48:05;2.80;99.90
2465;DHT22;1244;54.326;10.074;2023-11-18T06:50:31;2.90;99.90
2465;DHT22;1244;54.326;10.074;2023-11-18T06:52:57;2.90;99.90
2465;DHT22;1244;54.326;10.074;2023-11-18T06:55:24;2.90;99.90
2465;DHT22;1244;54.326;10.074;2023-11-18T06:57:51;2.80;99.90
2465;DHT22;1244;54.326;10.074;2023-11-18T07:00:17;2.90;99.90
2465;DHT22;1244;54.326;10.074;2023-11-18T07:02:42;2.90;99.90
2465;DHT22;1244;54.326;10.074;2023-11-18T07:05:08;2.90;99.90
2465;DHT22;1244;54.326;10.074;2023-11-18T07:07:34;2.90;99.90
2465;DHT22;1244;54.326;10.074;2023-11-18T07:10:00;2.90;99.90
2465;DHT22;1244;54.326;10.074;2023-11-18T07:12:25;2.90;99.90
2465;DHT22;1244;54.326;10.074;2023-11-18T07:14:51;2.80;99.90
2465;DHT22;1244;54.326;10.074;2023-11-18T07:17:16;2.80;99.90
2465;DHT22;1244;54.326;10.074;2023-11-18T07:19:44;2.90;99.90
2465;DHT22;1244;54.326;10.074;2023-11-18T07:22:10;2.80;99.90
2465;DHT22;1244;54.326;10.074;2023-11-18T07:24:35;2.70;99.90
2465;DHT22;1244;54.326;10.074;2023-11-18T07:27:01;2.80;99.90
2465;DHT22;1244;54.326;10.074;2023-11-18T07:29:26;2.80;99.90
2465;DHT22;1244;54.326;10.074;2023-11-18T07:31:52;2.80;99.90
2465;DHT22;1244;54.326;10.074;2023-11-18T07:34:20;2.80;99.90
2465;DHT22;1244;54.326;10.074;2023-11-18T07:36:46;2.80;99.90
2465;DHT22;1244;54.326;10.074;2023-11-18T07:39:13;2.80;99.90
2465;DHT22;1244;54.326;10.074;2023-11-18T07:41:44;2.70;99.90
2465;DHT22;1244;54.326;10.074;2023-11-18T07:44:09;2.70;99.90
2465;DHT22;1244;54.326;10.074;2023-11-18T07:46:38;2.80;99.90
2465;DHT22;1244;54.326;10.074;2023-11-18T07:49:03;2.80;99.90
2465;DHT22;1244;54.326;10.074;2023-11-18T07:51:29;2.80;99.90
2465;DHT22;1244;54.326;10.074;2023-11-18T07:53:54;2.80;99.90
2465;DHT22;1244;54.326;10.074;2023-11-18T07:56:20;2.80;99.90
2465;DHT22;1244;54.326;10.074;2023-11-18T07:58:47;2.90;99.90
2465;DHT22;1244;54.326;10.074;2023-11-18T08:01:13;2.90;99.90
2465;DHT22;1244;54.326;10.074;2023-11-18T08:03:41;2.80;99.90
2465;DHT22;1244;54.326;10.074;2023-11-18T08:06:07;2.90;99.90
2465;DHT22;1244;54.326;10.074;2023-11-18T08:08:32;2.90;99.90
2465;DHT22;1244;54.326;10.074;2023-11-18T08:10:58;3.00;99.90
2465;DHT22;1244;54.326;10.074;2023-11-18T08:13:23;3.00;99.90
2465;DHT22;1244;54.326;10.074;2023-11-18T08:15:49;3.10;99.90
2465;DHT22;1244;54.326;10.074;2023-11-18T08:18:14;3.20;99.90
2465;DHT22;1244;54.326;10.074;2023-11-18T08:20:40;3.20;99.90
2465;DHT22;1244;54.326;10.074;2023-11-18T08:23:06;3.20;99.90
2465;DHT22;1244;54.326;10.074;2023-11-18T08:25:32;3.10;99.90
2465;DHT22;1244;54.326;10.074;2023-11-18T08:27:59;3.10;99.90
2465;DHT22;1244;54.326;10.074;2023-11-18T08:30:26;3.10;99.90
2465;DHT22;1244;54.326;10.074;2023-11-18T08:32:51;3.10;99.90
2465;DHT22;1244;54.326;10.074;2023-11-18T08:35:17;3.00;99.90
2465;DHT22;1244;54.326;10.074;2023-11-18T08:37:43;3.00;99.90
2465;DHT22;1244;54.326;10.074;2023-11-18T08:40:09;3.10;99.90
2465;DHT22;1244;54.326;10.074;2023-11-18T08:42:47;3.00;99.90
2465;DHT22;1244;54.326;10.074;2023-11-18T08:45:19;3.00;99.90
2465;DHT22;1244;54.326;10.074;2023-11-18T08:47:47;3.10;99.90
2465;DHT22;1244;54.326;10.074;2023-11-18T08:50:15;3.10;99.90
2465;DHT22;1244;54.326;10.074;2023-11-18T08:52:42;3.10;99.90
2465;DHT22;1244;54.326;10.074;2023-11-18T08:55:15;3.20;99.90
2465;DHT22;1244;54.326;10.074;2023-11-18T08:57:49;3.30;99.90
2465;DHT22;1244;54.326;10.074;2023-11-18T09:00:24;3.30;99.90
2465;DHT22;1244;54.326;10.074;2023-11-18T09:03:08;3.20;99.90
2465;DHT22;1244;54.326;10.074;2023-11-18T09:05:33;3.10;99.90
2465;DHT22;1244;54.326;10.074;2023-11-18T09:08:03;3.00;99.90
2465;DHT22;1244;54.326;10.074;2023-11-18T09:10:31;3.20;99.90
2465;DHT22;1244;54.326;10.074;2023-11-18T09:12:56;3.10;99.90
2465;DHT22;1244;54.326;10.074;2023-11-18T09:15:22;3.20;99.90
2465;DHT22;1244;54.326;10.074;2023-11-18T09:17:50;3.10;99.90
2465;DHT22;1244;54.326;10.074;2023-11-18T09:20:18;3.20;99.90
2465;DHT22;1244;54.326;10.074;2023-11-18T09:22:50;3.50;99.90
2465;DHT22;1244;54.326;10.074;2023-11-18T09:25:19;3.60;99.90
2465;DHT22;1244;54.326;10.074;2023-11-18T09:27:47;3.50;99.90
2465;DHT22;1244;54.326;10.074;2023-11-18T09:30:13;3.40;99.90
2465;DHT22;1244;54.326;10.074;2023-11-18T09:32:42;3.40;99.90
2465;DHT22;1244;54.326;10.074;2023-11-18T09:35:10;3.50;99.90
2465;DHT22;1244;54.326;10.074;2023-11-18T09:37:38;3.50;99.90
2465;DHT22;1244;54.326;10.074;2023-11-18T09:40:04;3.60;99.90
2465;DHT22;1244;54.326;10.074;2023-11-18T09:42:37;3.70;99.90
2465;DHT22;1244;54.326;10.074;2023-11-18T09:45:04;3.90;99.90
2465;DHT22;1244;54.326;10.074;2023-11-18T09:47:35;4.30;99.90
2465;DHT22;1244;54.326;10.074;2023-11-18T09:50:06;4.10;99.90
2465;DHT22;1244;54.326;10.074;2023-11-18T09:52:35;4.10;99.90
2465;DHT22;1244;54.326;10.074;2023-11-18T09:55:03;4.20;99.90
2465;DHT22;1244;54.326;10.074;2023-11-18T09:57:40;4.50;99.90
2465;DHT22;1244;54.326;10.074;2023-11-18T10:00:10;4.70;99.90
2465;DHT22;1244;54.326;10.074;2023-11-18T10:02:45;4.60;99.90
2465;DHT22;1244;54.326;10.074;2023-11-18T10:05:12;4.50;99.90
2465;DHT22;1244;54.326;10.074;2023-11-18T10:07:39;4.50;99.90
2465;DHT22;1244;54.326;10.074;2023-11-18T10:10:06;4.40;99.90
2465;DHT22;1244;54.326;10.074;2023-11-18T10:12:40;4.40;99.90
2465;DHT22;1244;54.326;10.074;2023-11-18T10:15:07;4.40;99.90
2465;DHT22;1244;54.326;10.074;2023-11-18T10:17:38;4.40;99.90
2465;DHT22;1244;54.326;10.074;2023-11-18T10:20:26;4.30;99.90
2465;DHT22;1244;54.326;10.074;2023-11-18T10:23:10;4.40;99.90
2465;DHT22;1244;54.326;10.074;2023-11-18T10:25:36;5.10;99.90
2465;DHT22;1244;54.326;10.074;2023-11-18T10:28:06;6.00;99.90
2465;DHT22;1244;54.326;10.074;2023-11-18T10:30:32;6.70;99.90
2465;DHT22;1244;54.326;10.074;2023-11-18T10:32:59;7.10;99.90
2465;DHT22;1244;54.326;10.074;2023-11-18T10:35:32;7.40;99.90
2465;DHT22;1244;54.326;10.074;2023-11-18T10:37:57;7.50;99.90
2465;DHT22;1244;54.326;10.074;2023-11-18T10:40:25;7.70;99.90
2465;DHT22;1244;54.326;10.074;2023-11-18T10:42:52;7.80;99.90
2465;DHT22;1244;54.326;10.074;2023-11-18T10:45:24;7.80;99.90
2465;DHT22;1244;54.326;10.074;2023-11-18T10:47:54;8.20;99.90
2465;DHT22;1244;54.326;10.074;2023-11-18T10:50:21;8.30;99.90
2465;DHT22;1244;54.326;10.074;2023-11-18T10:52:47;8.40;99.90
2465;DHT22;1244;54.326;10.074;2023-11-18T10:55:13;8.30;99.90
2465;DHT22;1244;54.326;10.074;2023-11-18T10:57:44;8.80;99.90
2465;DHT22;1244;54.326;10.074;2023-11-18T11:00:12;8.50;99.90
2465;DHT22;1244;54.326;10.074;2023-11-18T11:02:43;8.90;99.90
2465;DHT22;1244;54.326;10.074;2023-11-18T11:05:09;8.60;99.90
2465;DHT22;1244;54.326;10.074;2023-11-18T11:07:43;8.70;99.90
2465;DHT22;1244;54.326;10.074;2023-11-18T11:10:10;9.00;99.90
2465;DHT22;1244;54.326;10.074;2023-11-18T11:12:36;9.20;99.90
2465;DHT22;1244;54.326;10.074;2023-11-18T11:15:13;8.80;99.90
2465;DHT22;1244;54.326;10.074;2023-11-18T11:17:48;8.70;99.90
2465;DHT22;1244;54.326;10.074;2023-11-18T11:20:18;8.40;99.90
2465;DHT22;1244;54.326;10.074;2023-11-18T11:28:10;8.20;99.90
2465;DHT22;1244;54.326;10.074;2023-11-18T11:30:46;8.40;99.90
2465;DHT22;1244;54.326;10.074;2023-11-18T11:35:48;9.20;99.90
2465;DHT22;1244;54.326;10.074;2023-11-18T11:38:14;9.70;99.90
2465;DHT22;1244;54.326;10.074;2023-11-18T11:40:42;10.10;99.90
2465;DHT22;1244;54.326;10.074;2023-11-18T11:43:08;9.70;99.90
2465;DHT22;1244;54.326;10.074;2023-11-18T11:45:38;9.70;99.90
2465;DHT22;1244;54.326;10.074;2023-11-18T11:48:04;9.30;99.90
2465;DHT22;1244;54.326;10.074;2023-11-18T11:51:02;8.60;99.90
2465;DHT22;1244;54.326;10.074;2023-11-18T11:53:34;8.20;99.90
2465;DHT22;1244;54.326;10.074;2023-11-18T11:56:01;8.10;99.90
2465;DHT22;1244;54.326;10.074;2023-11-18T11:58:38;7.90;99.90
2465;DHT22;1244;54.326;10.074;2023-11-18T12:03:43;8.20;99.90
2465;DHT22;1244;54.326;10.074;2023-11-18T12:06:19;8.70;99.90
2465;DHT22;1244;54.326;10.074;2023-11-18T12:08:52;8.90;99.90
2465;DHT22;1244;54.326;10.074;2023-11-18T12:11:29;8.30;99.90
2465;DHT22;1244;54.326;10.074;2023-11-18T12:14:04;7.90;99.90
2465;DHT22;1244;54.326;10.074;2023-11-18T12:19:29;7.80;99.90
2465;DHT22;1244;54.326;10.074;2023-11-18T12:22:01;7.80;99.90
2465;DHT22;1244;54.326;10.074;2023-11-18T12:24:35;7.90;99.90
2465;DHT22;1244;54.326;10.074;2023-11-18T12:27:00;8.00;99.90
2465;DHT22;1244;54.326;10.074;2023-11-18T12:29:31;8.20;99.90
2465;DHT22;1244;54.326;10.074;2023-11-18T12:31:57;7.90;99.90
2465;DHT22;1244;54.326;10.074;2023-11-18T12:34:23;7.80;99.90
2465;DHT22;1244;54.326;10.074;2023-11-18T12:39:44;7.50;99.90
2465;DHT22;1244;54.326;10.074;2023-11-18T12:42:20;7.70;99.90
2465;DHT22;1244;54.326;10.074;2023-11-18T12:47:39;7.50;99.90
2465;DHT22;1244;54.326;10.074;2023-11-18T12:50:10;7.60;99.90
2465;DHT22;1244;54.326;10.074;2023-11-18T12:52:43;8.20;99.90
2465;DHT22;1244;54.326;10.074;2023-11-18T12:55:11;8.70;99.90
2465;DHT22;1244;54.326;10.074;2023-11-18T12:57:45;9.20;99.90
2465;DHT22;1244;54.326;10.074;2023-11-18T13:00:11;9.30;99.90
2465;DHT22;1244;54.326;10.074;2023-11-18T13:02:37;9.10;99.90
2465;DHT22;1244;54.326;10.074;2023-11-18T13:05:05;9.40;99.90
2465;DHT22;1244;54.326;10.074;2023-11-18T13:07:30;9.80;99.90
2465;DHT22;1244;54.326;10.074;2023-11-18T13:09:56;9.90;99.90
2465;DHT22;1244;54.326;10.074;2023-11-18T13:12:21;8.80;99.90
2465;DHT22;1244;54.326;10.074;2023-11-18T13:14:49;7.90;99.90
2465;DHT22;1244;54.326;10.074;2023-11-18T13:17:15;7.40;99.90
2465;DHT22;1244;54.326;10.074;2023-11-18T13:19:41;7.30;99.90
2465;DHT22;1244;54.326;10.074;2023-11-18T13:22:08;7.10;99.90
2465;DHT22;1244;54.326;10.074;2023-11-18T13:24:37;7.00;99.90
2465;DHT22;1244;54.326;10.074;2023-11-18T13:27:04;6.90;99.90
2465;DHT22;1244;54.326;10.074;2023-11-18T13:29:35;6.90;99.90
2465;DHT22;1244;54.326;10.074;2023-11-18T13:32:01;6.80;99.90
2465;DHT22;1244;54.326;10.074;2023-11-18T13:34:29;6.70;99.90
2465;DHT22;1244;54.326;10.074;2023-11-18T13:36:58;6.70;99.90
2465;DHT22;1244;54.326;10.074;2023-11-18T13:39:24;6.70;99.90
2465;DHT22;1244;54.326;10.074;2023-11-18T13:41:52;6.70;99.90
2465;DHT22;1244;54.326;10.074;2023-11-18T13:44:36;6.60;99.90
2465;DHT22;1244;54.326;10.074;2023-11-18T13:47:06;6.60;99.90
2465;DHT22;1244;54.326;10.074;2023-11-18T13:49:32;6.60;99.90
2465;DHT22;1244;54.326;10.074;2023-11-18T13:52:00;6.50;99.90
2465;DHT22;1244;54.326;10.074;2023-11-18T13:54:27;6.50;99.90
2465;DHT22;1244;54.326;10.074;2023-11-18T13:56:54;6.40;99.90
2465;DHT22;1244;54.326;10.074;2023-11-18T13:59:23;6.40;99.90
2465;DHT22;1244;54.326;10.074;2023-11-18T14:01:49;6.40;99.90
2465;DHT22;1244;54.326;10.074;2023-11-18T14:04:15;6.30;99.90
2465;DHT22;1244;54.326;10.074;2023-11-18T14:06:40;6.30;99.90
2465;DHT22;1244;54.326;10.074;2023-11-18T14:09:07;6.20;99.90
2465;DHT22;1244;54.326;10.074;2023-11-18T14:11:35;6.20;99.90
2465;DHT22;1244;54.326;10.074;2023-11-18T14:14:01;6.20;99.90
2465;DHT22;1244;54.326;10.074;2023-11-18T14:16:26;6.20;99.90
2465;DHT22;1244;54.326;10.074;2023-11-18T14:18:51;6.10;99.90
2465;DHT22;1244;54.326;10.074;2023-11-18T14:21:17;6.20;99.90
2465;DHT22;1244;54.326;10.074;2023-11-18T14:23:43;6.10;99.90
2465;DHT22;1244;54.326;10.074;2023-11-18T14:26:08;6.10;99.90
2465;DHT22;1244;54.326;10.074;2023-11-18T14:28:34;6.10;99.90
2465;DHT22;1244;54.326;10.074;2023-11-18T14:31:00;6.00;99.90
2465;DHT22;1244;54.326;10.074;2023-11-18T14:33:26;6.00;99.90
2465;DHT22;1244;54.326;10.074;2023-11-18T14:35:53;6.00;99.90
2465;DHT22;1244;54.326;10.074;2023-11-18T14:38:19;5.90;99.90
2465;DHT22;1244;54.326;10.074;2023-11-18T14:40:45;5.90;99.90
2465;DHT22;1244;54.326;10.074;2023-11-18T14:43:11;5.90;99.90
2465;DHT22;1244;54.326;10.074;2023-11-18T14:45:36;5.90;99.90
2465;DHT22;1244;54.326;10.074;2023-11-18T14:48:02;5.90;99.90
2465;DHT22;1244;54.326;10.074;2023-11-18T14:50:28;5.80;99.90
2465;DHT22;1244;54.326;10.074;2023-11-18T14:52:53;5.80;99.90
2465;DHT22;1244;54.326;10.074;2023-11-18T14:55:26;5.80;99.90
2465;DHT22;1244;54.326;10.074;2023-11-18T14:57:51;5.70;99.90
2465;DHT22;1244;54.326;10.074;2023-11-18T15:00:17;5.70;99.90
2465;DHT22;1244;54.326;10.074;2023-11-18T15:02:48;5.70;99.90
2465;DHT22;1244;54.326;10.074;2023-11-18T15:05:14;5.70;99.90
2465;DHT22;1244;54.326;10.074;2023-11-18T15:07:44;5.70;99.90
2465;DHT22;1244;54.326;10.074;2023-11-18T15:10:10;5.70;99.90
2465;DHT22;1244;54.326;10.074;2023-11-18T15:12:37;5.60;99.90
2465;DHT22;1244;54.326;10.074;2023-11-18T15:15:06;5.60;99.90
2465;DHT22;1244;54.326;10.074;2023-11-18T15:17:36;5.60;99.90
2465;DHT22;1244;54.326;10.074;2023-11-18T15:20:04;5.60;99.90
2465;DHT22;1244;54.326;10.074;2023-11-18T15:22:31;5.60;99.90
2465;DHT22;1244;54.326;10.074;2023-11-18T15:24:56;5.60;99.90
2465;DHT22;1244;54.326;10.074;2023-11-18T15:27:24;5.60;99.90
2465;DHT22;1244;54.326;10.074;2023-11-18T15:29:50;5.50;99.90
2465;DHT22;1244;54.326;10.074;2023-11-18T15:32:16;5.50;99.90
2465;DHT22;1244;54.326;10.074;2023-11-18T15:34:42;5.50;99.90
2465;DHT22;1244;54.326;10.074;2023-11-18T15:37:07;5.50;99.90
2465;DHT22;1244;54.326;10.074;2023-11-18T15:39:34;5.40;99.90
2465;DHT22;1244;54.326;10.074;2023-11-18T15:42:00;5.40;99.90
2465;DHT22;1244;54.326;10.074;2023-11-18T15:44:25;5.50;99.90
2465;DHT22;1244;54.326;10.074;2023-11-18T15:46:54;5.40;99.90
2465;DHT22;1244;54.326;10.074;2023-11-18T15:49:19;5.40;99.90
2465;DHT22;1244;54.326;10.074;2023-11-18T15:51:45;5.40;99.90
2465;DHT22;1244;54.326;10.074;2023-11-18T15:54:11;5.40;99.90
2465;DHT22;1244;54.326;10.074;2023-11-18T15:56:40;5.40;99.90
2465;DHT22;1244;54.326;10.074;2023-11-18T15:59:07;5.40;99.90
2465;DHT22;1244;54.326;10.074;2023-11-18T16:01:33;5.30;99.90
2465;DHT22;1244;54.326;10.074;2023-11-18T16:04:00;5.40;99.90
2465;DHT22;1244;54.326;10.074;2023-11-18T16:06:25;5.30;99.90
2465;DHT22;1244;54.326;10.074;2023-11-18T16:08:51;5.30;99.90
2465;DHT22;1244;54.326;10.074;2023-11-18T16:11:17;5.30;99.90
2465;DHT22;1244;54.326;10.074;2023-11-18T16:13:44;5.30;99.90
2465;DHT22;1244;54.326;10.074;2023-11-18T16:16:09;5.30;99.90
2465;DHT22;1244;54.326;10.074;2023-11-18T16:18:34;5.30;99.90
2465;DHT22;1244;54.326;10.074;2023-11-18T16:21:00;5.30;99.90
2465;DHT22;1244;54.326;10.074;2023-11-18T16:23:29;5.30;99.90